Time;durP1;ratioP1;P1;durP2;ratioP2;P2;SDS_P1;SDS_P2;PMS_P1;PMS_P2;Temp;Humidity;BMP_temperature;BMP_pressure;BME280_temperature;BME280_humidity;BME280_pressure;Samples;Min_cycle;Max_cycle;Signal;HPM_P1;HPM_P2
2023/09/13 00:01:48;;;;;;;41.25;37.25;;;21.70;99.90;;;;;;5027241;28;20049;-63
2023/09/13 00:04:13;;;;;;;41.97;37.92;;;21.60;99.90;;;;;;5027579;28;20099;-63
2023/09/13 00:06:39;;;;;;;40.03;36.35;;;21.30;99.90;;;;;;5025979;28;20542;-63
2023/09/13 00:09:08;;;;;;;41.28;36.92;;;20.90;99.90;;;;;;5026685;28;20041;-63
2023/09/13 00:11:37;;;;;;;39.58;35.63;;;21.10;99.90;;;;;;5027061;28;20096;-59
2023/09/13 00:14:03;;;;;;;40.80;36.85;;;21.50;99.90;;;;;;5033246;28;20510;-60
2023/09/13 00:16:28;;;;;;;40.28;36.30;;;21.50;99.90;;;;;;5037430;28;20036;-61
2023/09/13 00:18:54;;;;;;;40.58;36.60;;;20.80;99.90;;;;;;5042590;28;20505;-60
2023/09/13 00:21:20;;;;;;;38.97;34.90;;;21.50;99.90;;;;;;5026952;28;20047;-61
2023/09/13 00:23:46;;;;;;;40.00;36.30;;;21.50;99.90;;;;;;5026938;28;20042;-61
2023/09/13 00:26:14;;;;;;;40.42;36.45;;;21.50;99.90;;;;;;5026022;28;20415;-60
2023/09/13 00:28:39;;;;;;;40.95;36.60;;;20.70;99.90;;;;;;5029807;28;20037;-62
2023/09/13 00:31:08;;;;;;;38.97;35.13;;;21.20;99.90;;;;;;5030349;28;20095;-60
2023/09/13 00:33:34;;;;;;;39.70;36.20;;;21.40;99.90;;;;;;5039813;28;20049;-61
2023/09/13 00:36:00;;;;;;;39.88;35.67;;;21.20;99.90;;;;;;5041640;28;20037;-61
2023/09/13 00:38:25;;;;;;;40.58;36.25;;;21.40;99.90;;;;;;5031191;28;20045;-59
2023/09/13 00:40:52;;;;;;;39.75;35.67;;;20.70;99.90;;;;;;5029050;28;20044;-60
2023/09/13 00:43:17;;;;;;;38.17;34.47;;;20.70;99.90;;;;;;5034713;28;20521;-60
2023/09/13 00:45:44;;;;;;;38.03;34.30;;;21.20;99.90;;;;;;5049301;28;20053;-60
2023/09/13 00:48:09;;;;;;;39.28;35.60;;;21.30;99.90;;;;;;5050642;28;20125;-62
2023/09/13 00:50:38;;;;;;;37.15;33.78;;;21.40;99.90;;;;;;5033545;28;20470;-61
2023/09/13 00:53:04;;;;;;;38.78;34.10;;;21.30;99.90;;;;;;5030958;28;20045;-60
2023/09/13 00:55:30;;;;;;;36.63;33.33;;;21.40;99.90;;;;;;5023277;28;20052;-61
2023/09/13 00:57:56;;;;;;;36.88;33.25;;;20.80;99.90;;;;;;5017354;28;20461;-60
2023/09/13 01:00:24;;;;;;;36.67;33.42;;;21.30;99.90;;;;;;5034665;28;20519;-62
2023/09/13 01:02:50;;;;;;;37.47;33.55;;;20.90;99.90;;;;;;5038475;28;20530;-61
2023/09/13 01:05:17;;;;;;;37.10;33.13;;;21.20;99.90;;;;;;5043976;28;20091;-61
2023/09/13 01:07:44;;;;;;;37.20;33.70;;;21.30;99.90;;;;;;5024230;28;20566;-60
2023/09/13 01:10:11;;;;;;;41.95;38.38;;;20.80;99.90;;;;;;5029953;28;20045;-60
2023/09/13 01:12:37;;;;;;;32.47;29.17;;;20.70;99.90;;;;;;5032692;28;20049;-59
2023/09/13 01:15:07;;;;;;;32.78;29.27;;;20.70;99.90;;;;;;5049820;28;20405;-60
2023/09/13 01:17:37;;;;;;;32.33;29.02;;;20.50;99.90;;;;;;5033143;28;20053;-61
2023/09/13 01:20:37;;;;;;;33.38;29.95;;;20.10;99.90;;;;;;5013706;28;20064;-62
2023/09/13 01:23:14;;;;;;;33.65;29.77;;;20.10;99.90;;;;;;5007520;28;20057;-63
2023/09/13 01:25:48;;;;;;;31.95;28.85;;;21.00;99.90;;;;;;5030180;28;20052;-63
2023/09/13 01:28:34;;;;;;;32.67;29.55;;;20.20;99.90;;;;;;5029062;28;20041;-63
2023/09/13 01:31:03;;;;;;;36.50;32.75;;;20.60;99.90;;;;;;5027978;28;20033;-63
2023/09/13 01:33:29;;;;;;;31.08;27.65;;;21.10;99.90;;;;;;5028735;28;20048;-63
2023/09/13 01:35:54;;;;;;;33.80;30.42;;;19.50;99.90;;;;;;5029885;28;20368;-63
2023/09/13 01:38:20;;;;;;;32.75;29.67;;;19.30;99.90;;;;;;5028711;28;20120;-63
2023/09/13 01:40:48;;;;;;;29.08;26.38;;;18.80;99.90;;;;;;5009362;28;20057;-63
2023/09/13 01:43:14;;;;;;;30.30;27.08;;;18.80;99.90;;;;;;5020648;28;20711;-63
2023/09/13 01:45:41;;;;;;;33.60;29.30;;;21.10;99.90;;;;;;5038585;28;20040;-63
2023/09/13 01:48:07;;;;;;;32.85;29.73;;;21.20;99.90;;;;;;5029688;28;20041;-63
2023/09/13 01:50:34;;;;;;;29.65;26.55;;;19.70;99.90;;;;;;5028865;28;20060;-63
2023/09/13 01:53:03;;;;;;;31.58;26.60;;;21.20;99.90;;;;;;5029700;28;20037;-63
2023/09/13 01:55:29;;;;;;;27.77;25.17;;;18.40;99.90;;;;;;5027957;28;20357;-63
2023/09/13 01:57:55;;;;;;;29.30;25.40;;;18.90;99.90;;;;;;5029448;28;20049;-63
2023/09/13 02:00:21;;;;;;;28.58;25.33;;;18.40;99.90;;;;;;5042922;28;20450;-63
2023/09/13 02:02:46;;;;;;;31.35;28.40;;;18.20;99.90;;;;;;5048854;28;20037;-63
2023/09/13 02:05:12;;;;;;;29.48;24.73;;;18.50;99.90;;;;;;5029049;28;20034;-63
2023/09/13 02:07:37;;;;;;;33.22;27.60;;;20.90;99.90;;;;;;5029003;28;20041;-63
2023/09/13 02:10:03;;;;;;;29.52;26.15;;;21.50;99.90;;;;;;5015545;28;20113;-63
2023/09/13 02:12:29;;;;;;;35.38;32.00;;;19.40;99.90;;;;;;5025442;28;20045;-63
2023/09/13 02:14:54;;;;;;;31.75;24.95;;;18.40;99.90;;;;;;5028133;28;20083;-64
2023/09/13 02:17:20;;;;;;;29.17;25.95;;;18.60;99.90;;;;;;5017463;28;20649;-63
2023/09/13 02:19:50;;;;;;;29.48;26.60;;;19.40;99.90;;;;;;5022421;28;20073;-63
2023/09/13 02:22:16;;;;;;;28.52;25.73;;;19.80;99.90;;;;;;5049000;28;20479;-63
2023/09/13 02:24:41;;;;;;;29.77;25.92;;;21.70;99.90;;;;;;5037756;28;20075;-64
2023/09/13 02:27:07;;;;;;;30.23;27.42;;;21.60;99.90;;;;;;5029079;28;20051;-63
2023/09/13 02:29:32;;;;;;;27.13;24.30;;;20.70;99.90;;;;;;5020476;28;20046;-64
2023/09/13 02:31:58;;;;;;;23.73;21.40;;;18.90;99.90;;;;;;5026829;28;20128;-63
2023/09/13 02:34:24;;;;;;;27.00;24.17;;;17.70;99.90;;;;;;5029397;28;20084;-63
2023/09/13 02:36:49;;;;;;;29.20;26.33;;;19.20;99.90;;;;;;5041421;28;20037;-63
2023/09/13 02:39:37;;;;;;;30.95;28.40;;;17.80;99.90;;;;;;5027446;28;20458;-63
2023/09/13 02:42:04;;;;;;;30.80;27.95;;;18.40;99.90;;;;;;5025892;28;20390;-64
2023/09/13 02:44:31;;;;;;;27.92;25.23;;;21.70;99.90;;;;;;5021609;28;20446;-63
2023/09/13 02:46:57;;;;;;;28.88;26.15;;;17.60;99.90;;;;;;5027049;28;20097;-63
2023/09/13 02:49:24;;;;;;;26.60;24.13;;;19.50;99.90;;;;;;5027439;28;20041;-63
2023/09/13 02:51:51;;;;;;;28.17;25.75;;;21.00;99.90;;;;;;5047967;28;20056;-63
2023/09/13 02:54:16;;;;;;;26.05;23.70;;;21.50;99.90;;;;;;5036004;28;20184;-65
2023/09/13 02:56:42;;;;;;;26.80;24.17;;;18.70;99.90;;;;;;5008720;28;20467;-65
2023/09/13 02:59:08;;;;;;;27.33;24.80;;;21.10;99.90;;;;;;5010435;28;20052;-64
2023/09/13 03:01:33;;;;;;;30.13;26.95;;;21.20;99.90;;;;;;5026149;28;20060;-64
2023/09/13 03:03:59;;;;;;;28.77;25.92;;;22.00;99.90;;;;;;5024616;28;20040;-64
2023/09/13 03:06:24;;;;;;;30.17;27.10;;;20.10;99.90;;;;;;5035031;28;20041;-64
2023/09/13 03:08:50;;;;;;;30.27;26.92;;;17.80;99.90;;;;;;5026135;28;20054;-65
2023/09/13 03:11:18;;;;;;;27.65;25.05;;;21.80;99.90;;;;;;5009018;28;20530;-65
2023/09/13 03:13:45;;;;;;;28.95;25.05;;;20.60;99.90;;;;;;5012272;28;20041;-65
2023/09/13 03:16:15;;;;;;;30.42;25.45;;;21.30;99.90;;;;;;5026789;28;20041;-65
2023/09/13 03:18:41;;;;;;;30.83;25.58;;;18.10;99.90;;;;;;5027946;28;20453;-65
2023/09/13 03:21:08;;;;;;;29.73;24.67;;;21.00;99.90;;;;;;5043426;28;20037;-65
2023/09/13 03:23:36;;;;;;;30.33;26.83;;;20.60;99.90;;;;;;5041365;28;20057;-66
2023/09/13 03:26:02;;;;;;;30.20;27.15;;;20.10;99.90;;;;;;5007973;28;20108;-66
2023/09/13 03:28:27;;;;;;;33.70;30.17;;;21.70;99.90;;;;;;5008311;28;20534;-66
2023/09/13 03:30:53;;;;;;;38.33;28.02;;;19.60;99.90;;;;;;5022874;28;20582;-66
2023/09/13 03:33:18;;;;;;;34.47;27.65;;;18.10;99.90;;;;;;5036760;28;20406;-67
2023/09/13 03:35:44;;;;;;;32.70;29.23;;;21.80;99.90;;;;;;5026318;28;20491;-66
2023/09/13 03:38:09;;;;;;;35.53;28.85;;;18.70;99.90;;;;;;5027532;28;20562;-66
2023/09/13 03:40:35;;;;;;;34.22;30.00;;;19.70;99.90;;;;;;5015043;28;20077;-70
2023/09/13 03:43:00;;;;;;;33.03;29.55;;;17.50;99.90;;;;;;5007552;28;20042;-70
2023/09/13 03:45:26;;;;;;;38.80;31.58;;;20.70;99.90;;;;;;5039351;28;20041;-70
2023/09/13 03:47:51;;;;;;;35.70;30.98;;;16.80;99.90;;;;;;5027538;28;20033;-69
2023/09/13 03:50:17;;;;;;;34.05;30.63;;;16.40;99.90;;;;;;5034811;28;20040;-70
2023/09/13 03:52:42;;;;;;;32.88;29.45;;;19.80;99.90;;;;;;5047131;28;20049;-69
2023/09/13 03:55:08;;;;;;;35.05;31.17;;;16.60;99.90;;;;;;5017688;28;20119;-70
2023/09/13 03:57:34;;;;;;;36.97;32.15;;;20.10;99.90;;;;;;5014448;28;20073;-70
2023/09/13 03:59:59;;;;;;;35.05;31.45;;;20.90;99.90;;;;;;5026880;28;20057;-69
2023/09/13 04:02:25;;;;;;;40.08;32.92;;;19.60;99.90;;;;;;5042818;28;20049;-69
2023/09/13 04:04:50;;;;;;;40.08;32.55;;;17.10;99.90;;;;;;5021900;28;20048;-69
2023/09/13 04:07:16;;;;;;;38.42;30.92;;;21.10;99.90;;;;;;5023331;28;20125;-69
2023/09/13 04:09:41;;;;;;;50.05;33.97;;;19.60;99.90;;;;;;5024092;28;20447;-70
2023/09/13 04:12:07;;;;;;;46.58;33.58;;;18.30;99.90;;;;;;5011409;28;20046;-70
2023/09/13 04:14:33;;;;;;;43.38;35.50;;;20.90;99.90;;;;;;5023072;28;20045;-71
2023/09/13 04:16:59;;;;;;;43.05;36.97;;;16.70;99.90;;;;;;5013435;28;20063;-71
2023/09/13 04:19:24;;;;;;;41.03;35.08;;;20.80;99.90;;;;;;5013930;28;20052;-71
2023/09/13 04:21:50;;;;;;;37.60;33.15;;;20.60;99.90;;;;;;5021977;28;20041;-70
2023/09/13 04:24:15;;;;;;;41.25;36.90;;;16.20;99.90;;;;;;5023085;28;20107;-69
2023/09/13 04:26:41;;;;;;;42.88;33.85;;;16.10;99.90;;;;;;5019708;28;20044;-69
2023/09/13 04:29:06;;;;;;;35.28;31.70;;;19.00;99.90;;;;;;5013083;28;20037;-70
2023/09/13 04:31:32;;;;;;;42.13;36.17;;;15.90;99.90;;;;;;5013394;28;20037;-70
2023/09/13 04:33:58;;;;;;;39.58;35.30;;;16.40;99.90;;;;;;5012102;28;20049;-70
2023/09/13 04:36:23;;;;;;;43.72;39.08;;;19.90;99.90;;;;;;5022913;28;20477;-70
2023/09/13 04:38:49;;;;;;;41.47;37.42;;;20.20;99.90;;;;;;5024250;28;20140;-70
2023/09/13 04:41:16;;;;;;;45.70;41.25;;;19.40;99.90;;;;;;5005066;28;20491;-70
2023/09/13 04:43:42;;;;;;;43.30;39.08;;;17.80;99.90;;;;;;5015583;28;20048;-70
2023/09/13 04:46:08;;;;;;;41.55;37.08;;;16.80;99.90;;;;;;5015111;28;20093;-70
2023/09/13 04:48:34;;;;;;;39.78;35.58;;;17.90;99.90;;;;;;5022456;28;20045;-71
2023/09/13 04:51:00;;;;;;;39.65;35.70;;;19.70;99.90;;;;;;5014765;28;20041;-66
2023/09/13 04:53:26;;;;;;;41.42;37.78;;;15.60;99.90;;;;;;5021522;28;21392;-66
2023/09/13 04:55:52;;;;;;;47.30;43.22;;;17.60;99.90;;;;;;5021683;28;20128;-66
2023/09/13 04:58:17;;;;;;;46.55;42.30;;;20.00;99.90;;;;;;5019906;28;20045;-66
2023/09/13 05:00:43;;;;;;;39.40;35.53;;;18.50;99.90;;;;;;5020246;28;20062;-66
2023/09/13 05:03:09;;;;;;;46.30;41.60;;;15.80;99.90;;;;;;5004978;28;20052;-67
2023/09/13 05:05:34;;;;;;;45.08;40.70;;;20.00;99.90;;;;;;5020739;28;20446;-67
2023/09/13 05:08:00;;;;;;;45.65;41.42;;;17.40;99.90;;;;;;5017278;28;20120;-69
2023/09/13 05:10:25;;;;;;;56.40;51.25;;;17.30;99.90;;;;;;5017221;28;20060;-68
2023/09/13 05:12:51;;;;;;;43.97;39.25;;;16.80;99.90;;;;;;5021948;28;20049;-66
2023/09/13 05:15:16;;;;;;;47.58;42.70;;;15.70;99.90;;;;;;5020242;28;20116;-66
2023/09/13 05:17:42;;;;;;;45.42;40.80;;;19.40;99.90;;;;;;5020008;28;20106;-66
2023/09/13 05:20:08;;;;;;;47.45;43.15;;;15.90;99.90;;;;;;5021481;28;20179;-66
2023/09/13 05:22:33;;;;;;;47.92;43.28;;;19.90;99.90;;;;;;5024857;28;20402;-66
2023/09/13 05:25:00;;;;;;;49.22;44.72;;;17.20;99.90;;;;;;5026698;28;20037;-66
2023/09/13 05:27:26;;;;;;;47.20;42.92;;;17.90;99.90;;;;;;5027169;28;20141;-67
2023/09/13 05:29:52;;;;;;;44.38;39.95;;;20.10;99.90;;;;;;5015251;28;20121;-66
2023/09/13 05:32:18;;;;;;;41.58;37.13;;;18.90;99.90;;;;;;5020785;28;20558;-67
2023/09/13 05:34:45;;;;;;;43.20;39.53;;;18.40;99.90;;;;;;5031011;28;20051;-66
2023/09/13 05:37:10;;;;;;;43.22;39.05;;;17.50;99.90;;;;;;5029683;28;20049;-66
2023/09/13 05:39:36;;;;;;;43.90;39.60;;;15.80;99.90;;;;;;5030086;28;20053;-67
2023/09/13 05:42:03;;;;;;;47.35;42.78;;;16.30;99.90;;;;;;5038099;28;20080;-66
2023/09/13 05:44:30;;;;;;;43.25;38.67;;;19.50;99.90;;;;;;5050169;28;20561;-66
2023/09/13 05:46:56;;;;;;;42.33;38.40;;;17.20;99.90;;;;;;5042625;28;20041;-66
2023/09/13 05:49:22;;;;;;;41.95;37.75;;;18.30;99.90;;;;;;5030567;28;20041;-66
2023/09/13 05:51:48;;;;;;;44.08;39.63;;;17.30;99.90;;;;;;5031002;28;20479;-66
2023/09/13 05:54:14;;;;;;;41.03;36.90;;;20.50;99.90;;;;;;5030933;28;20384;-66
2023/09/13 05:56:41;;;;;;;51.08;45.97;;;19.60;99.90;;;;;;5030647;28;20044;-66
2023/09/13 05:59:07;;;;;;;40.10;36.38;;;20.50;99.90;;;;;;5035058;28;20120;-67
2023/09/13 06:01:33;;;;;;;43.78;39.92;;;20.60;99.90;;;;;;5026049;28;20045;-67
2023/09/13 06:03:58;;;;;;;39.38;35.65;;;19.00;99.90;;;;;;5012129;28;20042;-67
2023/09/13 06:06:24;;;;;;;37.35;34.03;;;18.00;99.90;;;;;;5029055;28;20091;-67
2023/09/13 06:08:49;;;;;;;40.65;36.38;;;19.50;99.90;;;;;;5028928;28;20049;-67
2023/09/13 06:11:16;;;;;;;38.15;34.63;;;16.00;99.90;;;;;;5030219;28;20096;-67
2023/09/13 06:13:42;;;;;;;39.00;35.55;;;15.70;99.90;;;;;;5057625;28;20049;-67
2023/09/13 06:16:07;;;;;;;36.85;33.42;;;16.40;99.90;;;;;;5028235;28;20041;-67
2023/09/13 06:18:33;;;;;;;42.97;39.17;;;20.60;99.90;;;;;;5027836;28;20049;-67
2023/09/13 06:20:59;;;;;;;34.67;31.40;;;18.10;99.90;;;;;;5027031;28;20037;-67
2023/09/13 06:23:41;;;;;;;44.05;39.80;;;16.70;99.90;;;;;;5028717;28;20461;-67
2023/09/13 06:26:07;;;;;;;37.25;34.08;;;18.10;99.90;;;;;;5025350;28;20044;-67
2023/09/13 06:28:33;;;;;;;34.85;31.73;;;19.70;99.90;;;;;;5027586;28;20408;-67
2023/09/13 06:31:00;;;;;;;34.42;31.30;;;18.30;99.90;;;;;;5029164;28;20033;-67
2023/09/13 06:33:27;;;;;;;30.63;27.80;;;21.30;99.90;;;;;;5026375;28;20053;-67
2023/09/13 06:35:54;;;;;;;38.70;35.67;;;16.00;99.90;;;;;;5060401;28;20495;-67
2023/09/13 06:38:20;;;;;;;38.92;35.55;;;17.40;99.90;;;;;;5027754;28;20045;-67
2023/09/13 06:40:47;;;;;;;38.47;34.97;;;18.60;99.90;;;;;;5028850;28;20033;-67
2023/09/13 06:43:18;;;;;;;36.15;33.05;;;20.70;99.90;;;;;;5029953;28;20049;-66
2023/09/13 06:45:44;;;;;;;34.25;31.27;;;16.90;99.90;;;;;;4990993;28;20052;-66
2023/09/13 06:48:10;;;;;;;31.85;29.05;;;21.40;99.90;;;;;;5025490;28;20573;-67
2023/09/13 06:50:35;;;;;;;31.48;28.42;;;15.70;99.90;;;;;;5025749;28;20041;-66
2023/09/13 06:53:02;;;;;;;32.05;28.85;;;15.80;99.90;;;;;;5025975;28;20062;-66
2023/09/13 06:55:30;;;;;;;35.67;32.33;;;16.40;99.90;;;;;;5023029;28;20200;-66
2023/09/13 06:57:56;;;;;;;32.20;29.30;;;17.50;99.90;;;;;;5054445;28;20053;-66
2023/09/13 07:00:21;;;;;;;31.88;29.17;;;20.10;99.90;;;;;;5026271;28;20130;-67
2023/09/13 07:02:47;;;;;;;34.22;31.23;;;16.60;99.90;;;;;;5021512;28;20053;-67
2023/09/13 07:05:13;;;;;;;35.38;32.17;;;20.50;99.90;;;;;;5024399;28;20084;-67
2023/09/13 07:07:38;;;;;;;29.95;27.20;;;21.30;99.90;;;;;;5026244;28;20049;-67
2023/09/13 07:10:04;;;;;;;34.92;31.67;;;20.40;99.90;;;;;;5027396;28;20494;-67
2023/09/13 07:12:30;;;;;;;32.38;29.05;;;21.70;99.90;;;;;;5028148;28;20063;-66
2023/09/13 07:14:56;;;;;;;34.42;30.88;;;21.90;99.90;;;;;;5040763;28;20033;-66
2023/09/13 07:17:22;;;;;;;36.40;32.95;;;22.00;99.90;;;;;;5025829;28;20167;-66
2023/09/13 07:19:47;;;;;;;34.90;30.00;;;21.10;99.90;;;;;;5027367;28;20033;-67
2023/09/13 07:22:13;;;;;;;40.30;35.00;;;20.40;99.90;;;;;;5021051;28;20037;-66
2023/09/13 07:24:39;;;;;;;40.05;31.65;;;21.80;99.90;;;;;;5025544;28;20053;-66
2023/09/13 07:27:04;;;;;;;43.33;32.70;;;20.50;99.90;;;;;;5025655;28;20037;-66
2023/09/13 07:29:30;;;;;;;44.75;34.08;;;22.20;99.90;;;;;;5024895;28;20037;-66
2023/09/13 07:31:55;;;;;;;44.97;33.85;;;17.80;99.90;;;;;;5008376;28;20077;-66
2023/09/13 07:34:21;;;;;;;38.13;33.80;;;21.10;99.90;;;;;;5025395;28;20072;-66
2023/09/13 07:36:46;;;;;;;42.55;37.95;;;18.20;99.90;;;;;;5058605;28;20041;-66
2023/09/13 07:39:12;;;;;;;46.53;38.45;;;21.70;99.90;;;;;;5024978;28;20523;-66
2023/09/13 07:41:38;;;;;;;47.97;39.78;;;17.30;99.90;;;;;;5026775;28;20037;-66
2023/09/13 07:44:03;;;;;;;46.83;39.63;;;18.50;99.90;;;;;;5023672;28;20041;-66
2023/09/13 07:46:30;;;;;;;47.70;42.55;;;19.80;99.90;;;;;;5027955;28;20037;-66
2023/09/13 07:48:55;;;;;;;48.63;42.35;;;20.90;99.90;;;;;;5024886;28;20068;-66
2023/09/13 07:51:21;;;;;;;49.58;44.38;;;17.80;99.90;;;;;;5024120;28;20069;-66
2023/09/13 07:53:46;;;;;;;48.50;43.28;;;18.70;99.90;;;;;;5024577;28;20099;-67
2023/09/13 07:56:12;;;;;;;50.30;42.88;;;18.60;99.90;;;;;;5026280;28;20099;-65
2023/09/13 07:58:37;;;;;;;53.75;48.05;;;17.80;99.90;;;;;;5026311;28;20132;-66
2023/09/13 08:01:03;;;;;;;48.10;43.10;;;18.20;99.90;;;;;;5024359;28;20057;-66
2023/09/13 08:03:28;;;;;;;51.28;43.67;;;19.00;99.90;;;;;;5022101;28;20415;-66
2023/09/13 08:05:56;;;;;;;48.65;43.42;;;18.50;99.90;;;;;;5025898;28;20044;-67
2023/09/13 08:08:25;;;;;;;50.35;44.70;;;18.80;99.90;;;;;;5025086;28;20033;-66
2023/09/13 08:10:52;;;;;;;51.63;46.63;;;18.80;99.90;;;;;;5026007;28;20107;-66
2023/09/13 08:13:21;;;;;;;50.03;45.35;;;18.60;99.90;;;;;;5023428;28;20487;-66
2023/09/13 08:15:47;;;;;;;48.88;43.92;;;19.00;99.90;;;;;;5023549;28;20049;-66
2023/09/13 08:18:12;;;;;;;46.03;41.33;;;19.00;99.90;;;;;;5025981;28;20067;-65
2023/09/13 08:20:38;;;;;;;45.38;40.88;;;18.90;99.90;;;;;;5026860;28;20049;-69
2023/09/13 08:23:04;;;;;;;44.45;40.00;;;18.80;99.90;;;;;;5024731;28;20064;-68
2023/09/13 08:25:29;;;;;;;44.85;40.50;;;18.50;99.90;;;;;;5024637;28;20034;-69
2023/09/13 08:27:55;;;;;;;38.75;35.10;;;18.80;99.90;;;;;;5025866;28;20149;-68
2023/09/13 08:30:20;;;;;;;44.00;40.00;;;18.80;99.90;;;;;;5027039;28;20037;-68
2023/09/13 08:32:46;;;;;;;44.20;39.70;;;19.20;99.90;;;;;;5026400;28;20549;-68
2023/09/13 08:35:11;;;;;;;38.95;35.45;;;19.60;99.90;;;;;;5024414;28;20503;-69
2023/09/13 08:37:37;;;;;;;36.88;33.50;;;19.50;99.90;;;;;;5025609;28;20057;-68
2023/09/13 08:40:04;;;;;;;36.13;32.70;;;19.50;99.90;;;;;;5025728;28;20072;-69
2023/09/13 08:42:30;;;;;;;34.42;31.35;;;19.70;99.90;;;;;;5024342;28;20439;-69
2023/09/13 08:44:57;;;;;;;28.75;26.35;;;20.10;99.90;;;;;;5026999;28;20578;-69
2023/09/13 08:47:26;;;;;;;29.13;26.42;;;19.80;99.90;;;;;;5021684;28;20037;-69
2023/09/13 08:49:52;;;;;;;28.13;25.70;;;19.90;99.90;;;;;;5025099;28;20046;-68
2023/09/13 08:52:20;;;;;;;30.30;27.40;;;20.00;99.90;;;;;;5028984;28;20053;-68
2023/09/13 08:54:48;;;;;;;21.63;18.42;;;20.20;99.90;;;;;;5030195;28;20056;-68
2023/09/13 08:57:14;;;;;;;22.40;20.23;;;20.30;99.90;;;;;;5029657;28;20053;-68
2023/09/13 08:59:40;;;;;;;20.10;18.10;;;20.00;99.90;;;;;;5030849;28;20712;-67
2023/09/13 09:02:14;;;;;;;18.63;16.92;;;20.20;99.90;;;;;;5029613;28;20045;-68
2023/09/13 09:04:40;;;;;;;18.42;16.88;;;20.20;99.90;;;;;;5030357;28;20351;-68
2023/09/13 09:07:06;;;;;;;21.55;19.58;;;20.40;99.90;;;;;;5031773;28;20037;-67
2023/09/13 09:09:32;;;;;;;20.60;18.63;;;20.60;99.90;;;;;;5030272;28;20034;-68
2023/09/13 09:12:03;;;;;;;17.42;15.60;;;21.10;99.90;;;;;;5029455;28;20049;-69
2023/09/13 09:14:32;;;;;;;17.80;15.80;;;21.30;99.90;;;;;;5034205;28;20077;-68
2023/09/13 09:17:00;;;;;;;18.25;16.08;;;21.40;99.90;;;;;;5030021;28;20144;-68
2023/09/13 09:19:26;;;;;;;17.65;15.63;;;21.60;99.90;;;;;;5024411;28;20061;-68
2023/09/13 09:21:52;;;;;;;18.77;16.75;;;21.80;99.90;;;;;;5029400;28;20052;-68
2023/09/13 09:24:17;;;;;;;13.95;11.65;;;21.80;99.90;;;;;;5030302;28;20048;-69
2023/09/13 09:26:44;;;;;;;14.70;11.90;;;22.00;99.90;;;;;;5030969;28;20526;-68
2023/09/13 09:29:16;;;;;;;10.07;9.00;;;21.80;99.90;;;;;;5030439;28;20052;-68
2023/09/13 09:31:42;;;;;;;11.57;8.43;;;21.60;99.90;;;;;;5027555;28;20522;-65
2023/09/13 09:34:10;;;;;;;13.40;9.85;;;21.70;1.00;;;;;;5028406;28;20041;-65
2023/09/13 09:36:43;;;;;;;10.32;9.23;;;21.70;98.10;;;;;;5059085;28;20132;-66
2023/09/13 09:39:09;;;;;;;14.70;10.55;;;21.70;99.90;;;;;;5028823;28;20121;-65
2023/09/13 09:41:36;;;;;;;11.80;8.93;;;21.70;99.90;;;;;;5029885;28;20045;-65
2023/09/13 09:44:03;;;;;;;9.90;8.88;;;21.70;99.90;;;;;;5029643;28;21507;-64
2023/09/13 09:46:30;;;;;;;14.05;10.07;;;21.60;99.90;;;;;;5059110;28;20046;-65
2023/09/13 09:48:56;;;;;;;10.85;9.73;;;21.70;99.90;;;;;;5028943;28;20403;-65
2023/09/13 09:51:22;;;;;;;11.93;10.35;;;21.80;1.00;;;;;;5029120;28;20045;-65
2023/09/13 09:53:48;;;;;;;14.13;10.48;;;21.90;1.00;;;;;;5027925;28;20041;-65
2023/09/13 09:56:16;;;;;;;15.30;11.13;;;22.00;99.90;;;;;;5029701;28;20052;-66
2023/09/13 09:58:42;;;;;;;10.25;9.20;;;22.10;99.90;;;;;;5029994;28;20098;-65
2023/09/13 10:01:11;;;;;;;14.75;10.93;;;22.20;99.90;;;;;;5028659;28;20060;-65
2023/09/13 10:03:37;;;;;;;13.38;10.07;;;22.30;99.90;;;;;;5027769;28;20049;-65
2023/09/13 10:06:10;;;;;;;12.70;10.57;;;22.30;62.40;;;;;;5027412;28;20045;-65
2023/09/13 10:08:47;;;;;;;11.63;9.48;;;22.30;1.00;;;;;;5031732;28;20037;-65
2023/09/13 10:11:16;;;;;;;12.40;10.18;;;22.20;57.70;;;;;;5029283;28;20068;-65
2023/09/13 10:13:45;;;;;;;13.90;10.23;;;22.30;99.90;;;;;;5027790;28;20550;-64
2023/09/13 10:16:12;;;;;;;13.23;10.00;;;22.20;99.90;;;;;;5027158;28;20676;-65
2023/09/13 10:18:45;;;;;;;15.25;9.93;;;22.20;99.90;;;;;;5028570;28;20041;-65
2023/09/13 10:21:13;;;;;;;15.57;10.68;;;22.20;1.00;;;;;;5025709;28;20041;-65
2023/09/13 10:23:43;;;;;;;15.07;10.35;;;21.90;99.90;;;;;;5026596;28;20097;-65
2023/09/13 10:26:11;;;;;;;12.65;10.02;;;21.70;99.90;;;;;;5029448;28;20064;-65
2023/09/13 10:28:43;;;;;;;12.95;10.10;;;21.70;34.50;;;;;;5027828;28;20439;-65
2023/09/13 10:31:18;;;;;;;12.70;10.77;;;21.80;27.40;;;;;;5027315;28;20531;-65
2023/09/13 10:33:48;;;;;;;14.50;12.23;;;21.80;49.10;;;;;;5027755;28;20176;-65
2023/09/13 10:36:31;;;;;;;14.55;11.05;;;21.90;99.90;;;;;;5028523;28;20125;-64
2023/09/13 10:39:27;;;;;;;12.00;10.63;;;21.80;5.30;;;;;;5027446;28;20073;-65
2023/09/13 10:42:02;;;;;;;13.85;11.23;;;21.60;96.60;;;;;;5029973;28;20057;-63
2023/09/13 10:44:28;;;;;;;13.00;9.95;;;21.70;99.90;;;;;;5026706;28;20063;-63
2023/09/13 10:46:55;;;;;;;13.68;9.57;;;21.90;99.90;;;;;;5028348;28;20036;-65
2023/09/13 10:49:21;;;;;;;12.98;9.20;;;22.10;99.90;;;;;;5028072;28;20491;-63
2023/09/13 10:51:48;;;;;;;11.70;9.30;;;22.30;99.10;;;;;;5027867;28;20115;-65
2023/09/13 10:54:15;;;;;;;11.77;10.20;;;22.60;91.00;;;;;;5027286;28;20164;-68
2023/09/13 10:56:41;;;;;;;13.82;8.80;;;23.10;99.90;;;;;;5026819;28;20041;-64
2023/09/13 10:59:09;;;;;;;13.82;9.85;;;23.60;1.00;;;;;;5031862;28;20048;-63
2023/09/13 11:01:35;;;;;;;9.88;8.18;;;23.80;1.00;;;;;;5028102;28;20033;-65
2023/09/13 11:04:04;;;;;;;12.70;8.55;;;23.90;99.90;;;;;;5026316;28;20423;-65
2023/09/13 11:06:30;;;;;;;11.85;7.80;;;23.90;99.90;;;;;;5028642;28;20048;-64
2023/09/13 11:09:26;;;;;;;19.38;10.25;;;23.70;99.90;;;;;;5030293;28;20040;-64
2023/09/13 11:11:52;;;;;;;12.05;9.68;;;23.20;99.90;;;;;;5024381;28;20487;-63
2023/09/13 11:14:30;;;;;;;11.35;10.07;;;22.70;99.90;;;;;;5023890;28;20096;-64
2023/09/13 11:17:07;;;;;;;12.93;10.48;;;22.50;99.90;;;;;;5026541;28;20414;-63
2023/09/13 11:19:33;;;;;;;12.27;9.52;;;22.50;1.00;;;;;;5026561;28;20514;-64
2023/09/13 11:22:02;;;;;;;11.43;8.65;;;22.50;1.00;;;;;;5027956;28;20041;-64
2023/09/13 11:24:43;;;;;;;12.07;10.75;;;22.50;1.00;;;;;;5030417;28;20044;-64
2023/09/13 11:27:13;;;;;;;14.60;9.20;;;22.40;1.00;;;;;;5027846;28;20108;-63
2023/09/13 11:29:41;;;;;;;10.27;9.00;;;22.40;1.00;;;;;;5027600;28;20494;-62
2023/09/13 11:32:07;;;;;;;15.50;10.63;;;22.40;1.00;;;;;;5026415;28;20053;-64
2023/09/13 11:34:34;;;;;;;14.25;10.88;;;22.10;1.00;;;;;;5029466;28;20116;-64
2023/09/13 11:37:03;;;;;;;17.27;12.05;;;22.00;1.00;;;;;;5031129;28;20041;-64
2023/09/13 11:39:30;;;;;;;15.18;12.35;;;21.90;57.00;;;;;;5028914;28;20073;-64
2023/09/13 11:41:56;;;;;;;14.80;11.68;;;21.90;99.90;;;;;;5026739;28;20049;-63
2023/09/13 11:44:23;;;;;;;15.35;9.82;;;21.80;99.90;;;;;;5027603;28;20087;-67
2023/09/13 11:46:53;;;;;;;14.88;9.82;;;22.00;99.90;;;;;;5027656;28;20041;-64
2023/09/13 11:49:21;;;;;;;13.50;9.85;;;22.00;99.90;;;;;;5026833;28;20113;-63
2023/09/13 11:51:52;;;;;;;12.23;10.38;;;22.10;60.90;;;;;;5027765;28;20512;-63
2023/09/13 11:54:19;;;;;;;12.48;9.70;;;22.20;2.50;;;;;;5025786;28;20120;-64
2023/09/13 11:56:45;;;;;;;12.98;9.15;;;22.20;99.90;;;;;;5028793;28;20040;-64
2023/09/13 11:59:11;;;;;;;16.58;10.10;;;22.30;85.30;;;;;;5026256;28;20037;-64
2023/09/13 12:01:48;;;;;;;17.83;10.50;;;22.30;68.20;;;;;;5027907;28;20758;-63
2023/09/13 12:04:14;;;;;;;13.45;9.40;;;22.50;75.40;;;;;;5027461;28;20116;-62
2023/09/13 12:06:46;;;;;;;12.10;10.70;;;22.50;99.90;;;;;;5027345;28;20187;-65
2023/09/13 12:09:16;;;;;;;12.30;10.88;;;22.60;1.00;;;;;;5025925;28;20416;-64
2023/09/13 12:11:49;;;;;;;12.20;9.65;;;22.70;98.70;;;;;;5026481;28;20523;-63
2023/09/13 12:14:15;;;;;;;13.20;10.88;;;22.70;1.00;;;;;;5024424;28;20388;-63
2023/09/13 12:16:40;;;;;;;15.27;11.02;;;22.60;1.00;;;;;;5025933;28;20037;-63
2023/09/13 12:19:06;;;;;;;20.98;18.85;;;22.40;1.00;;;;;;5026845;28;20090;-63
2023/09/13 12:21:33;;;;;;;26.95;24.20;;;22.10;99.90;;;;;;5026460;28;20041;-63
2023/09/13 12:23:59;;;;;;;32.28;28.92;;;21.60;1.00;;;;;;5057865;28;20041;-64
2023/09/13 12:26:25;;;;;;;34.30;30.80;;;21.20;21.00;;;;;;5025113;28;20094;-63
2023/09/13 12:28:52;;;;;;;35.97;32.15;;;20.80;99.90;;;;;;5027319;28;20741;-63